Time;durP1;ratioP1;P1;durP2;ratioP2;P2;SDS_P1;SDS_P2;PMS_P1;PMS_P2;Temp;Humidity;BMP_temperature;BMP_pressure;BME280_temperature;BME280_humidity;BME280_pressure;Samples;Min_cycle;Max_cycle;Signal;HPM_P1;HPM_P2
2022/06/02 00:00:41;;;;;;;0.00;0.00;;;11.00;99.90;;;;;;4940891;28;20466;-71
2022/06/02 00:03:20;;;;;;;0.00;0.00;;;10.90;99.90;;;;;;4941644;28;20848;-72
2022/06/02 00:05:57;;;;;;;0.00;0.00;;;10.90;99.90;;;;;;4940500;28;20447;-72
2022/06/02 00:08:33;;;;;;;0.00;0.00;;;10.80;99.90;;;;;;4941055;28;20429;-71
2022/06/02 00:11:11;;;;;;;0.00;0.00;;;10.80;99.90;;;;;;4940605;28;20484;-71
2022/06/02 00:13:47;;;;;;;0.00;0.00;;;10.70;99.90;;;;;;4940902;28;20444;-71
2022/06/02 00:16:25;;;;;;;0.00;0.00;;;10.70;99.90;;;;;;4939874;28;20233;-71
2022/06/02 00:18:59;;;;;;;0.00;0.00;;;10.70;99.90;;;;;;4940891;28;21061;-71
2022/06/02 00:21:34;;;;;;;0.00;0.00;;;10.60;99.90;;;;;;4940466;28;20468;-70
2022/06/02 00:24:12;;;;;;;0.00;0.00;;;10.50;99.90;;;;;;4941480;28;20448;-70
2022/06/02 00:26:53;;;;;;;0.00;0.00;;;10.50;99.90;;;;;;4940563;28;20436;-71
2022/06/02 00:29:30;;;;;;;0.00;0.00;;;10.50;99.90;;;;;;4940865;28;20866;-69
2022/06/02 00:32:05;;;;;;;0.00;0.00;;;10.40;99.90;;;;;;4940526;28;21036;-71
2022/06/02 00:34:42;;;;;;;0.00;0.00;;;10.40;99.90;;;;;;4940488;28;20440;-69
2022/06/02 00:37:21;;;;;;;0.00;0.00;;;10.30;99.90;;;;;;4940841;28;20224;-71
2022/06/02 00:39:51;;;;;;;0.00;0.00;;;10.30;99.90;;;;;;4941190;28;20211;-71
2022/06/02 00:42:35;;;;;;;0.00;0.00;;;10.30;99.90;;;;;;4941163;28;20467;-70
2022/06/02 00:45:07;;;;;;;0.00;0.00;;;10.30;99.90;;;;;;4941730;28;20211;-70
2022/06/02 00:47:44;;;;;;;0.00;0.00;;;10.20;99.90;;;;;;4941497;28;20437;-71
2022/06/02 00:50:30;;;;;;;0.00;0.00;;;10.20;99.90;;;;;;4941106;28;20204;-71
2022/06/02 00:53:05;;;;;;;0.00;0.00;;;10.10;99.90;;;;;;4944077;28;20221;-70
2022/06/02 00:58:32;;;;;;;0.00;0.00;;;10.10;99.90;;;;;;4944748;28;20493;-70
2022/06/02 01:01:07;;;;;;;0.00;0.00;;;10.10;99.90;;;;;;4941457;28;20457;-71
2022/06/02 01:03:41;;;;;;;0.00;0.00;;;10.10;99.90;;;;;;4940918;28;20207;-70
2022/06/02 01:06:45;;;;;;;0.00;0.00;;;10.00;99.90;;;;;;4940857;28;20379;-71
2022/06/02 01:09:29;;;;;;;0.00;0.00;;;10.00;99.90;;;;;;4909904;28;20209;-71
2022/06/02 01:12:13;;;;;;;0.00;0.00;;;10.00;99.90;;;;;;4940582;28;20467;-70
2022/06/02 01:14:54;;;;;;;0.00;0.00;;;10.00;99.90;;;;;;4940599;28;20440;-70
2022/06/02 01:17:32;;;;;;;0.00;0.00;;;9.90;99.90;;;;;;4940085;28;20236;-70
2022/06/02 01:20:26;;;;;;;0.00;0.00;;;9.90;99.90;;;;;;4940112;28;20199;-71
2022/06/02 01:23:22;;;;;;;0.00;0.00;;;9.90;99.90;;;;;;4940254;28;20320;-71
2022/06/02 01:26:19;;;;;;;0.00;0.00;;;9.80;99.90;;;;;;4940065;28;20224;-71
2022/06/02 01:28:59;;;;;;;0.00;0.00;;;9.80;99.90;;;;;;4940273;28;20524;-72
2022/06/02 01:31:50;;;;;;;0.00;0.00;;;9.80;99.90;;;;;;4940231;28;20734;-79
2022/06/02 01:34:31;;;;;;;0.00;0.00;;;9.70;99.90;;;;;;4939673;28;20219;-70
2022/06/02 01:37:07;;;;;;;0.00;0.00;;;9.70;99.90;;;;;;4939525;28;20280;-71
2022/06/02 01:39:56;;;;;;;0.00;0.00;;;9.70;99.90;;;;;;4943618;28;20201;-68
2022/06/02 01:42:32;;;;;;;0.00;0.00;;;9.70;99.90;;;;;;4942259;28;20251;-68
2022/06/02 01:45:09;;;;;;;0.00;0.00;;;9.70;99.90;;;;;;4942084;28;20200;-68
2022/06/02 01:47:42;;;;;;;0.00;0.00;;;9.70;99.90;;;;;;4944234;28;20196;-69
2022/06/02 01:50:33;;;;;;;0.00;0.00;;;9.60;99.90;;;;;;4945029;28;20560;-69
2022/06/02 01:53:09;;;;;;;0.00;0.00;;;9.60;99.90;;;;;;4944380;28;20229;-69
2022/06/02 01:56:10;;;;;;;0.00;0.00;;;9.60;99.90;;;;;;4944299;28;20209;-67
2022/06/02 01:58:53;;;;;;;0.00;0.00;;;9.60;99.90;;;;;;4941131;28;20208;-70
2022/06/02 02:01:28;;;;;;;0.00;0.00;;;9.60;99.90;;;;;;4943082;28;20244;-69
2022/06/02 02:04:11;;;;;;;0.00;0.00;;;9.50;99.90;;;;;;4943273;28;20583;-70
2022/06/02 02:06:49;;;;;;;0.00;0.00;;;9.60;99.90;;;;;;4942992;28;20268;-69
2022/06/02 02:09:24;;;;;;;0.00;0.00;;;9.50;99.90;;;;;;4943335;28;20295;-69
2022/06/02 02:11:55;;;;;;;0.00;0.00;;;9.50;99.90;;;;;;4942977;28;20454;-69
2022/06/02 02:14:52;;;;;;;0.00;0.00;;;9.50;99.90;;;;;;4942979;28;20611;-69
2022/06/02 02:17:43;;;;;;;0.00;0.00;;;9.50;99.90;;;;;;4942846;28;20244;-69
2022/06/02 02:20:23;;;;;;;0.00;0.00;;;9.50;99.90;;;;;;4943363;28;20201;-69
2022/06/02 02:23:00;;;;;;;0.00;0.00;;;9.40;99.90;;;;;;4942628;28;20225;-68
2022/06/02 02:25:33;;;;;;;0.00;0.00;;;9.40;99.90;;;;;;4942705;28;20227;-69
2022/06/02 02:28:12;;;;;;;0.00;0.00;;;9.40;99.90;;;;;;4942622;28;20592;-69
2022/06/02 02:30:50;;;;;;;0.00;0.00;;;9.40;99.90;;;;;;4943481;28;20664;-69
2022/06/02 02:33:29;;;;;;;0.00;0.00;;;9.40;99.90;;;;;;4942502;28;20279;-69
2022/06/02 02:36:07;;;;;;;0.00;0.00;;;9.40;99.90;;;;;;4942402;28;20696;-69
2022/06/02 02:38:44;;;;;;;0.00;0.00;;;9.30;99.90;;;;;;4942718;28;20207;-69
2022/06/02 02:41:16;;;;;;;0.00;0.00;;;9.30;99.90;;;;;;4942830;28;20231;-70
2022/06/02 02:43:52;;;;;;;0.00;0.00;;;9.30;99.90;;;;;;4942496;28;20336;-68
2022/06/02 02:46:27;;;;;;;0.00;0.00;;;9.30;99.90;;;;;;4942453;28;20204;-69
2022/06/02 02:49:01;;;;;;;0.00;0.00;;;9.30;99.90;;;;;;4942525;28;20204;-69
2022/06/02 02:51:41;;;;;;;0.00;0.00;;;9.30;99.90;;;;;;4941762;28;20725;-69
2022/06/02 02:54:15;;;;;;;0.00;0.00;;;9.30;99.90;;;;;;4942587;28;20219;-69
2022/06/02 02:56:50;;;;;;;0.00;0.00;;;9.30;99.90;;;;;;4941457;28;20477;-68
2022/06/02 02:59:25;;;;;;;0.00;0.00;;;9.30;99.90;;;;;;4942831;28;20204;-67
2022/06/02 03:02:03;;;;;;;0.00;0.00;;;9.30;99.90;;;;;;4943554;28;20829;-67
2022/06/02 03:04:41;;;;;;;0.00;0.00;;;9.30;99.90;;;;;;4942620;28;20592;-67
2022/06/02 03:07:10;;;;;;;0.00;0.00;;;9.30;99.90;;;;;;4942691;28;20209;-68
2022/06/02 03:09:43;;;;;;;0.00;0.00;;;9.30;99.90;;;;;;4942849;28;20226;-67
2022/06/02 03:12:24;;;;;;;0.00;0.00;;;9.30;99.90;;;;;;4943200;28;20304;-67
2022/06/02 03:15:07;;;;;;;0.00;0.00;;;9.40;99.90;;;;;;4943394;28;20205;-68
2022/06/02 03:17:46;;;;;;;0.00;0.00;;;9.30;99.90;;;;;;4942688;28;20221;-68
2022/06/02 03:20:22;;;;;;;0.00;0.00;;;9.30;99.90;;;;;;4942483;28;20236;-69
2022/06/02 03:23:12;;;;;;;0.00;0.00;;;9.30;99.90;;;;;;4942434;28;20240;-69
2022/06/02 03:25:43;;;;;;;0.00;0.00;;;9.30;99.90;;;;;;4942390;28;20201;-67
2022/06/02 03:28:28;;;;;;;0.00;0.00;;;9.40;99.90;;;;;;4942952;28;20503;-69
2022/06/02 03:31:04;;;;;;;0.00;0.00;;;9.40;99.90;;;;;;4942111;28;20209;-68
2022/06/02 03:33:48;;;;;;;0.00;0.00;;;9.40;99.90;;;;;;4942952;28;20212;-68
2022/06/02 03:36:33;;;;;;;0.00;0.00;;;9.40;99.90;;;;;;4941735;28;20228;-68
2022/06/02 03:39:07;;;;;;;0.00;0.00;;;9.40;99.90;;;;;;4941817;28;20258;-68
2022/06/02 03:41:52;;;;;;;0.00;0.00;;;9.50;99.90;;;;;;4941645;28;20477;-69
2022/06/02 03:44:29;;;;;;;0.00;0.00;;;9.40;99.90;;;;;;4942083;28;20569;-68
2022/06/02 03:47:18;;;;;;;0.00;0.00;;;9.50;99.90;;;;;;4941778;28;20208;-68
2022/06/02 03:50:11;;;;;;;0.00;0.00;;;9.50;99.90;;;;;;4941846;28;20204;-68
2022/06/02 03:52:58;;;;;;;0.00;0.00;;;9.50;99.90;;;;;;4942277;28;20233;-67
2022/06/02 03:55:42;;;;;;;0.00;0.00;;;9.50;99.90;;;;;;4941191;28;20647;-69
2022/06/02 03:58:22;;;;;;;0.00;0.00;;;9.60;99.90;;;;;;4941770;28;20236;-68
2022/06/02 04:00:53;;;;;;;0.00;0.00;;;9.60;99.90;;;;;;4941615;28;20227;-69
2022/06/02 04:03:37;;;;;;;0.00;0.00;;;9.70;99.90;;;;;;4941288;28;20302;-68
2022/06/02 04:06:14;;;;;;;0.00;0.00;;;9.70;99.90;;;;;;4941970;28;20652;-68
2022/06/02 04:08:56;;;;;;;0.00;0.00;;;9.80;99.90;;;;;;4944311;28;20227;-68
2022/06/02 04:14:38;;;;;;;0.00;0.00;;;10.00;99.90;;;;;;4940758;28;20236;-69
2022/06/02 04:17:17;;;;;;;0.00;0.00;;;10.10;99.90;;;;;;4940713;28;20196;-71
2022/06/02 04:23:01;;;;;;;0.00;0.00;;;10.40;99.90;;;;;;4939986;28;20298;-70
2022/06/02 04:25:45;;;;;;;0.00;0.00;;;10.60;99.90;;;;;;4940280;28;20847;-69
2022/06/02 04:28:24;;;;;;;0.00;0.00;;;10.70;99.90;;;;;;4940743;28;20827;-71
2022/06/02 04:31:00;;;;;;;0.00;0.00;;;10.80;99.90;;;;;;4941021;28;20982;-70
2022/06/02 04:33:33;;;;;;;0.00;0.00;;;10.90;99.90;;;;;;4939810;28;20959;-68
2022/06/02 04:36:09;;;;;;;0.00;0.00;;;11.10;99.90;;;;;;4940078;28;20825;-70
2022/06/02 04:38:49;;;;;;;0.00;0.00;;;11.20;99.90;;;;;;4940114;28;20999;-69
2022/06/02 04:41:25;;;;;;;0.00;0.00;;;11.20;99.90;;;;;;4939823;28;20846;-70
2022/06/02 04:44:07;;;;;;;0.00;0.00;;;11.40;99.90;;;;;;4939357;28;20439;-68
2022/06/02 04:46:45;;;;;;;0.00;0.00;;;11.50;99.90;;;;;;4928506;29;20445;-69
2022/06/02 04:49:21;;;;;;;0.00;0.00;;;11.50;99.90;;;;;;4934605;29;20445;-68
2022/06/02 04:51:54;;;;;;;0.00;0.00;;;11.60;99.90;;;;;;4933979;29;20808;-69
2022/06/02 04:54:30;;;;;;;0.00;0.00;;;11.70;99.90;;;;;;4926908;29;20460;-70
2022/06/02 04:57:08;;;;;;;0.00;0.00;;;11.80;99.90;;;;;;4931635;29;20862;-75
2022/06/02 04:59:57;;;;;;;0.00;0.00;;;11.80;99.90;;;;;;4939567;29;20479;-72
2022/06/02 05:02:34;;;;;;;0.00;0.00;;;11.90;99.90;;;;;;4926192;29;21020;-72
2022/06/02 05:05:11;;;;;;;0.00;0.00;;;11.80;99.90;;;;;;4929910;29;20449;-73
2022/06/02 05:08:03;;;;;;;0.00;0.00;;;11.90;99.90;;;;;;4920711;29;20445;-73
2022/06/02 05:10:39;;;;;;;0.00;0.00;;;12.00;99.90;;;;;;4932721;29;20475;-74
2022/06/02 05:13:21;;;;;;;0.00;0.00;;;12.00;99.90;;;;;;4934666;29;20452;-74
2022/06/02 05:16:07;;;;;;;0.00;0.00;;;12.10;99.90;;;;;;4927654;28;20756;-74
2022/06/02 05:19:17;;;;;;;0.00;0.00;;;12.10;99.90;;;;;;4933649;29;21141;-73
2022/06/02 05:22:04;;;;;;;0.00;0.00;;;12.20;99.90;;;;;;4925669;29;20941;-73
2022/06/02 05:25:05;;;;;;;0.00;0.00;;;12.30;99.90;;;;;;4919776;28;20544;-74
2022/06/02 05:27:53;;;;;;;0.00;0.00;;;12.40;99.90;;;;;;4889553;29;20459;-73
2022/06/02 05:30:43;;;;;;;0.00;0.00;;;12.50;99.90;;;;;;4921431;29;20484;-73
2022/06/02 05:33:42;;;;;;;0.00;0.00;;;12.60;99.90;;;;;;4922190;29;20433;-73
2022/06/02 05:36:39;;;;;;;0.00;0.00;;;12.60;99.90;;;;;;4922641;29;20522;-72
2022/06/02 05:39:21;;;;;;;0.00;0.00;;;12.70;99.90;;;;;;4922285;29;20499;-72
2022/06/02 05:42:04;;;;;;;0.00;0.00;;;12.80;99.90;;;;;;4922111;29;20477;-74
2022/06/02 05:44:44;;;;;;;0.00;0.00;;;12.90;99.90;;;;;;4921045;29;20533;-74
2022/06/02 05:47:27;;;;;;;0.00;0.00;;;13.00;99.90;;;;;;4920330;29;20449;-73
2022/06/02 05:50:07;;;;;;;0.00;0.00;;;12.80;99.90;;;;;;4926563;29;20452;-73
2022/06/02 05:52:45;;;;;;;0.00;0.00;;;12.80;99.90;;;;;;4934346;28;20473;-76
2022/06/02 05:55:26;;;;;;;0.00;0.00;;;12.80;99.90;;;;;;4919564;29;20445;-74
2022/06/02 05:58:07;;;;;;;0.00;0.00;;;12.90;99.90;;;;;;4920593;29;20437;-74
2022/06/02 06:00:47;;;;;;;0.00;0.00;;;12.90;99.90;;;;;;4920386;29;20441;-74
2022/06/02 06:03:53;;;;;;;0.00;0.00;;;12.90;99.90;;;;;;4922770;29;20544;-75
2022/06/02 06:06:31;;;;;;;0.00;0.00;;;13.00;99.90;;;;;;4921301;29;20528;-74
2022/06/02 06:09:09;;;;;;;0.00;0.00;;;13.00;99.90;;;;;;4927582;29;20448;-75
2022/06/02 06:12:00;;;;;;;0.00;0.00;;;13.00;99.90;;;;;;4940067;29;21022;-73
2022/06/02 06:14:39;;;;;;;0.00;0.00;;;13.20;99.90;;;;;;4927693;29;20980;-75
2022/06/02 06:17:19;;;;;;;0.00;0.00;;;13.10;99.90;;;;;;4922943;29;20460;-72
2022/06/02 06:20:02;;;;;;;0.00;0.00;;;13.20;99.90;;;;;;4927579;29;20491;-75
2022/06/02 06:22:43;;;;;;;0.00;0.00;;;13.20;99.90;;;;;;4928936;29;20524;-74
2022/06/02 06:25:36;;;;;;;0.00;0.00;;;13.20;99.90;;;;;;4930554;29;21148;-72
2022/06/02 06:28:12;;;;;;;0.00;0.00;;;13.40;99.90;;;;;;4929945;28;20445;-76
2022/06/02 06:30:55;;;;;;;0.00;0.00;;;13.50;99.90;;;;;;4925595;29;20477;-75
2022/06/02 06:33:38;;;;;;;0.00;0.00;;;13.60;99.90;;;;;;4930912;29;20564;-75
2022/06/02 06:36:17;;;;;;;0.00;0.00;;;13.60;99.90;;;;;;4936001;29;20452;-75
2022/06/02 06:39:02;;;;;;;0.00;0.00;;;13.80;99.90;;;;;;4941046;29;20484;-74
2022/06/02 06:41:52;;;;;;;0.00;0.00;;;14.00;99.90;;;;;;4926493;28;20547;-77
2022/06/02 06:44:26;;;;;;;0.00;0.00;;;14.10;99.90;;;;;;4933286;29;20452;-74
2022/06/02 06:47:01;;;;;;;0.00;0.00;;;14.30;99.90;;;;;;4930544;29;20458;-73
2022/06/02 06:49:44;;;;;;;0.00;0.00;;;14.40;99.90;;;;;;4924031;29;20445;-74
2022/06/02 06:52:36;;;;;;;0.00;0.00;;;14.40;99.90;;;;;;4924917;29;21109;-74
2022/06/02 06:55:16;;;;;;;0.00;0.00;;;14.40;99.90;;;;;;4915383;28;20457;-75
2022/06/02 06:57:51;;;;;;;0.00;0.00;;;14.40;99.90;;;;;;4941043;29;20634;-74
2022/06/02 07:00:24;;;;;;;0.00;0.00;;;14.40;99.90;;;;;;4924058;29;20495;-75
2022/06/02 07:03:03;;;;;;;0.00;0.00;;;14.40;99.90;;;;;;4924291;29;20521;-75
2022/06/02 07:05:37;;;;;;;0.00;0.00;;;14.60;99.90;;;;;;4922384;29;20967;-75
2022/06/02 07:08:12;;;;;;;0.00;0.00;;;14.70;99.90;;;;;;4922885;29;20954;-74
2022/06/02 07:10:49;;;;;;;0.00;0.00;;;14.80;99.90;;;;;;4936515;29;20483;-74
2022/06/02 07:13:24;;;;;;;0.00;0.00;;;14.90;99.90;;;;;;4940529;28;21091;-72
2022/06/02 07:15:57;;;;;;;0.00;0.00;;;15.00;99.90;;;;;;4928570;29;20495;-74
2022/06/02 07:18:43;;;;;;;0.00;0.00;;;14.90;99.90;;;;;;4928238;29;21051;-74
2022/06/02 07:21:26;;;;;;;0.00;0.00;;;14.80;99.90;;;;;;4930933;29;20469;-74
2022/06/02 07:24:06;;;;;;;0.00;0.00;;;14.80;99.90;;;;;;4941444;29;20460;-74
2022/06/02 07:26:50;;;;;;;0.00;0.00;;;14.70;99.90;;;;;;4940835;29;20560;-75
2022/06/02 07:29:30;;;;;;;0.00;0.00;;;14.60;99.90;;;;;;4927264;29;20542;-72
2022/06/02 07:32:33;;;;;;;0.00;0.00;;;14.40;99.90;;;;;;4932322;29;20481;-74
2022/06/02 07:35:29;;;;;;;0.00;0.00;;;14.50;99.90;;;;;;4933075;29;20966;-75
2022/06/02 07:38:02;;;;;;;0.00;0.00;;;14.50;99.90;;;;;;4924416;28;21005;-76
2022/06/02 07:40:47;;;;;;;0.00;0.00;;;14.60;99.90;;;;;;4925516;29;20495;-73
2022/06/02 07:43:45;;;;;;;0.00;0.00;;;14.50;99.90;;;;;;4941190;28;20460;-72
2022/06/02 07:46:36;;;;;;;0.00;0.00;;;14.40;99.90;;;;;;4931517;28;20468;-76
2022/06/02 07:49:28;;;;;;;0.00;0.00;;;14.30;99.90;;;;;;4933358;29;20464;-75
2022/06/02 07:52:03;;;;;;;0.00;0.00;;;14.10;99.90;;;;;;4925892;29;20539;-76
2022/06/02 07:54:42;;;;;;;0.00;0.00;;;14.10;99.90;;;;;;4936309;29;21012;-77
2022/06/02 07:57:20;;;;;;;0.00;0.00;;;14.10;99.90;;;;;;4923568;29;20551;-77
2022/06/02 08:00:09;;;;;;;0.00;0.00;;;14.20;99.90;;;;;;4937835;28;20566;-76
2022/06/02 08:02:48;;;;;;;0.00;0.00;;;14.30;99.90;;;;;;4926520;29;21022;-73
2022/06/02 08:05:27;;;;;;;0.00;0.00;;;14.40;99.90;;;;;;4926819;29;20464;-76
2022/06/02 08:07:59;;;;;;;0.00;0.00;;;14.40;99.90;;;;;;4933324;29;20457;-75
2022/06/02 08:10:40;;;;;;;0.00;0.00;;;14.50;99.90;;;;;;4937402;29;20604;-75
2022/06/02 08:13:16;;;;;;;0.00;0.00;;;14.50;99.90;;;;;;4929130;29;20453;-75
2022/06/02 08:15:54;;;;;;;0.00;0.00;;;14.40;99.90;;;;;;4935975;29;20548;-75
2022/06/02 08:18:46;;;;;;;0.00;0.00;;;14.30;99.90;;;;;;4929713;29;20456;-75
2022/06/02 08:21:25;;;;;;;0.00;0.00;;;14.30;99.90;;;;;;4930058;29;20637;-75
2022/06/02 08:24:10;;;;;;;0.00;0.00;;;14.20;99.90;;;;;;4923046;29;20437;-74
2022/06/02 08:26:45;;;;;;;0.00;0.00;;;14.30;99.90;;;;;;4930228;29;20452;-75
2022/06/02 08:29:30;;;;;;;0.00;0.00;;;14.30;99.90;;;;;;4930724;29;20453;-74
2022/06/02 08:32:29;;;;;;;0.00;0.00;;;14.40;99.90;;;;;;4937709;29;20484;-74
2022/06/02 08:35:05;;;;;;;0.00;0.00;;;14.40;99.90;;;;;;4935346;28;20453;-74
2022/06/02 08:37:56;;;;;;;0.00;0.00;;;14.40;99.90;;;;;;4941464;29;20453;-74
2022/06/02 08:41:28;;;;;;;0.00;0.00;;;14.40;99.90;;;;;;4942971;28;20492;-74
2022/06/02 08:44:40;;;;;;;0.00;0.00;;;14.50;99.90;;;;;;4935906;29;20452;-74
2022/06/02 08:47:44;;;;;;;0.00;0.00;;;14.80;99.90;;;;;;4929177;29;20449;-71
2022/06/02 08:50:47;;;;;;;0.00;0.00;;;15.00;99.90;;;;;;4929890;29;20437;-69
2022/06/02 08:54:00;;;;;;;0.00;0.00;;;15.20;99.90;;;;;;4929363;29;20463;-69
2022/06/02 08:57:00;;;;;;;0.00;0.00;;;15.50;99.90;;;;;;4890653;29;20468;-70
2022/06/02 09:00:05;;;;;;;0.00;0.00;;;15.90;99.90;;;;;;4927819;28;20528;-69
2022/06/02 09:03:13;;;;;;;0.00;0.00;;;16.10;99.90;;;;;;4939746;28;20489;-71
2022/06/02 09:06:09;;;;;;;0.00;0.00;;;16.50;99.90;;;;;;4907533;28;20449;-69
2022/06/02 09:09:00;;;;;;;0.00;0.00;;;16.70;99.90;;;;;;4932081;28;20943;-69
2022/06/02 09:11:38;;;;;;;0.00;0.00;;;16.90;99.90;;;;;;4926660;29;20774;-69
2022/06/02 09:14:44;;;;;;;0.00;0.00;;;17.00;99.90;;;;;;4938896;29;20463;-72
2022/06/02 09:17:27;;;;;;;0.00;0.00;;;16.90;99.90;;;;;;4939569;28;20497;-71
2022/06/02 09:20:14;;;;;;;0.00;0.00;;;16.90;99.90;;;;;;4930627;29;20628;-70
2022/06/02 09:22:57;;;;;;;0.00;0.00;;;16.90;99.90;;;;;;4932246;29;21026;-70
2022/06/02 09:25:48;;;;;;;0.00;0.00;;;16.70;99.90;;;;;;4932309;28;20450;-70
2022/06/02 09:28:45;;;;;;;0.00;0.00;;;16.50;99.90;;;;;;4932579;29;20454;-71
2022/06/02 09:31:51;;;;;;;0.00;0.00;;;16.30;99.90;;;;;;4931942;29;20849;-69
2022/06/02 09:34:54;;;;;;;0.00;0.00;;;16.10;99.90;;;;;;4910343;28;20481;-71
2022/06/02 09:38:01;;;;;;;0.00;0.00;;;15.90;99.90;;;;;;4932742;28;20460;-69
2022/06/02 09:40:46;;;;;;;0.00;0.00;;;15.70;99.90;;;;;;4929755;29;20476;-69
2022/06/02 09:43:32;;;;;;;0.00;0.00;;;15.50;99.90;;;;;;4932209;29;20817;-69
2022/06/02 09:46:21;;;;;;;0.00;0.00;;;15.20;99.90;;;;;;4935670;29;20457;-70
2022/06/02 09:49:27;;;;;;;0.00;0.00;;;15.20;99.90;;;;;;4931276;29;20440;-70
2022/06/02 09:52:02;;;;;;;0.00;0.00;;;15.10;99.90;;;;;;4927087;29;20914;-75
2022/06/02 09:55:00;;;;;;;0.00;0.00;;;15.10;99.90;;;;;;4932513;29;20519;-68
2022/06/02 09:57:57;;;;;;;0.00;0.00;;;15.30;99.90;;;;;;4925659;29;20537;-69
2022/06/02 10:00:45;;;;;;;0.00;0.00;;;15.50;99.90;;;;;;4929587;29;20491;-69
2022/06/02 10:03:40;;;;;;;0.00;0.00;;;15.70;99.90;;;;;;4928811;29;20464;-69
2022/06/02 10:06:22;;;;;;;0.00;0.00;;;15.80;99.90;;;;;;4929705;29;20439;-67
2022/06/02 10:09:07;;;;;;;0.00;0.00;;;15.80;99.90;;;;;;4931426;29;20602;-68
2022/06/02 10:11:47;;;;;;;0.00;0.00;;;15.80;99.90;;;;;;4932363;29;20547;-69
2022/06/02 10:14:56;;;;;;;0.00;0.00;;;15.70;99.90;;;;;;4932708;29;20524;-69
2022/06/02 10:17:45;;;;;;;0.00;0.00;;;15.70;99.90;;;;;;4931856;29;20477;-69
2022/06/02 10:20:43;;;;;;;0.00;0.00;;;15.50;99.90;;;;;;4935875;28;20445;-69
2022/06/02 10:23:33;;;;;;;0.00;0.00;;;15.50;99.90;;;;;;4931160;29;20529;-70
2022/06/02 10:26:14;;;;;;;0.00;0.00;;;15.60;99.90;;;;;;4934915;29;20709;-68
2022/06/02 10:29:21;;;;;;;0.00;0.00;;;15.70;99.90;;;;;;4932867;29;20439;-68
2022/06/02 10:32:21;;;;;;;0.00;0.00;;;16.00;99.90;;;;;;4933643;29;20540;-68
2022/06/02 10:35:15;;;;;;;0.00;0.00;;;16.20;99.90;;;;;;4919985;29;20502;-70
2022/06/02 10:38:10;;;;;;;0.00;0.00;;;16.50;99.90;;;;;;4937186;28;20473;-68
2022/06/02 10:41:04;;;;;;;0.00;0.00;;;16.80;99.90;;;;;;4932289;29;20538;-69
2022/06/02 10:44:02;;;;;;;0.00;0.00;;;17.20;99.90;;;;;;4936021;29;20459;-69
2022/06/02 10:47:07;;;;;;;0.00;0.00;;;17.20;99.90;;;;;;4936331;29;20450;-71
2022/06/02 10:49:44;;;;;;;0.00;0.00;;;17.00;99.90;;;;;;4934548;28;20547;-70
2022/06/02 10:52:48;;;;;;;0.00;0.00;;;16.90;99.90;;;;;;4934588;29;20518;-69
2022/06/02 10:55:41;;;;;;;0.00;0.00;;;16.80;99.90;;;;;;4933315;29;20498;-67
2022/06/02 10:58:46;;;;;;;0.00;0.00;;;16.50;99.90;;;;;;4932841;29;20444;-67
2022/06/02 11:02:05;;;;;;;0.00;0.00;;;16.30;99.90;;;;;;4931069;28;20497;-66
2022/06/02 11:05:31;;;;;;;0.00;0.00;;;16.20;99.90;;;;;;4934015;29;20473;-67
2022/06/02 11:08:59;;;;;;;0.00;0.00;;;16.20;99.90;;;;;;4870957;29;20440;-66
2022/06/02 11:12:01;;;;;;;0.00;0.00;;;16.30;99.90;;;;;;4933591;28;20608;-68
2022/06/02 11:15:04;;;;;;;0.00;0.00;;;16.50;99.90;;;;;;4936164;29;20471;-67
2022/06/02 11:18:14;;;;;;;0.00;0.00;;;16.80;99.90;;;;;;4916116;29;20783;-68
2022/06/02 11:21:13;;;;;;;0.00;0.00;;;17.00;99.90;;;;;;4908922;29;20460;-67
2022/06/02 11:24:01;;;;;;;0.00;0.00;;;17.10;99.90;;;;;;4922643;29;20871;-67
2022/06/02 11:26:58;;;;;;;0.00;0.00;;;17.40;99.90;;;;;;4922503;29;20535;-67
2022/06/02 11:30:21;;;;;;;0.00;0.00;;;17.50;99.90;;;;;;4922454;29;20426;-67
2022/06/02 11:33:17;;;;;;;0.00;0.00;;;17.50;99.90;;;;;;4922637;29;20471;-67
2022/06/02 11:36:16;;;;;;;0.00;0.00;;;17.40;99.90;;;;;;4925329;29;20533;-67
2022/06/02 11:39:17;;;;;;;0.00;0.00;;;17.30;99.90;;;;;;4925790;29;20462;-65
2022/06/02 11:41:48;;;;;;;0.00;0.00;;;17.10;99.90;;;;;;4940583;28;21045;-68
2022/06/02 11:44:30;;;;;;;0.00;0.00;;;16.90;99.90;;;;;;4940820;28;21028;-68
2022/06/02 11:47:21;;;;;;;0.00;0.00;;;16.80;99.90;;;;;;4941174;28;20548;-67
2022/06/02 11:50:13;;;;;;;0.00;0.00;;;16.80;99.90;;;;;;4930429;29;20430;-67
2022/06/02 11:53:14;;;;;;;0.00;0.00;;;16.70;99.90;;;;;;4931983;29;21011;-68
2022/06/02 11:55:50;;;;;;;0.00;0.00;;;16.60;99.90;;;;;;4931740;29;20823;-66
2022/06/02 11:58:57;;;;;;;0.00;0.00;;;16.70;99.90;;;;;;4935531;29;20556;-70
2022/06/02 12:01:42;;;;;;;0.00;0.00;;;16.70;99.90;;;;;;4933878;28;20488;-69
2022/06/02 12:04:50;;;;;;;0.00;0.00;;;16.80;99.90;;;;;;4925136;29;20513;-70
2022/06/02 12:07:58;;;;;;;0.00;0.00;;;17.00;99.90;;;;;;4930045;29;20452;-70
2022/06/02 12:10:52;;;;;;;0.00;0.00;;;17.30;99.90;;;;;;4864579;29;20865;-68
2022/06/02 12:13:40;;;;;;;0.00;0.00;;;17.50;99.90;;;;;;4880380;29;20449;-69
2022/06/02 12:16:26;;;;;;;0.00;0.00;;;17.60;99.90;;;;;;4919340;28;20462;-68
2022/06/02 12:19:25;;;;;;;0.00;0.00;;;17.80;99.90;;;;;;4922905;29;20986;-74
2022/06/02 12:22:01;;;;;;;0.00;0.00;;;18.00;99.90;;;;;;4902396;28;20480;-74
2022/06/02 12:24:44;;;;;;;0.00;0.00;;;18.10;99.90;;;;;;4939467;29;20719;-73
2022/06/02 12:27:33;;;;;;;0.00;0.00;;;18.10;99.90;;;;;;4934181;29;20557;-75
2022/06/02 12:30:19;;;;;;;0.00;0.00;;;18.30;99.90;;;;;;4936910;28;20563;-72
2022/06/02 12:33:12;;;;;;;0.00;0.00;;;18.40;99.90;;;;;;4932762;29;20776;-72
2022/06/02 12:35:52;;;;;;;0.00;0.00;;;18.40;99.90;;;;;;4920799;29;20543;-68
2022/06/02 12:38:45;;;;;;;0.00;0.00;;;18.40;99.90;;;;;;4933543;29;20533;-68
2022/06/02 12:41:27;;;;;;;0.00;0.00;;;18.30;99.90;;;;;;4927946;29;20578;-70
2022/06/02 12:44:25;;;;;;;0.00;0.00;;;18.20;99.90;;;;;;4926477;28;20960;-70
2022/06/02 12:47:38;;;;;;;0.00;0.00;;;18.30;99.90;;;;;;4933363;29;20454;-68
2022/06/02 12:50:19;;;;;;;0.00;0.00;;;18.30;99.90;;;;;;4867387;29;20541;-68
2022/06/02 12:53:10;;;;;;;0.00;0.00;;;18.20;99.90;;;;;;4928277;29;20488;-68
2022/06/02 12:56:04;;;;;;;0.00;0.00;;;18.10;99.90;;;;;;4929152;28;20487;-69
2022/06/02 12:58:54;;;;;;;0.00;0.00;;;18.10;99.90;;;;;;4935231;29;20470;-71
2022/06/02 13:01:47;;;;;;;0.00;0.00;;;18.00;99.90;;;;;;4924982;29;20477;-68
2022/06/02 13:04:48;;;;;;;0.00;0.00;;;18.00;99.90;;;;;;4921574;29;20446;-69
2022/06/02 13:07:53;;;;;;;0.00;0.00;;;18.00;99.90;;;;;;4925034;29;20466;-69
2022/06/02 13:10:45;;;;;;;0.00;0.00;;;18.20;99.90;;;;;;4923300;28;20460;-69
2022/06/02 13:13:39;;;;;;;0.00;0.00;;;18.10;99.90;;;;;;4928589;29;20457;-68
2022/06/02 13:16:45;;;;;;;0.00;0.00;;;18.00;99.90;;;;;;4920989;29;20448;-69
2022/06/02 13:19:36;;;;;;;0.00;0.00;;;17.90;99.90;;;;;;4886576;28;20491;-69
2022/06/02 13:22:35;;;;;;;0.00;0.00;;;17.90;99.90;;;;;;4902662;29;20990;-69
2022/06/02 13:25:51;;;;;;;0.00;0.00;;;17.80;99.90;;;;;;4926352;28;20442;-69
2022/06/02 13:28:33;;;;;;;0.00;0.00;;;17.80;99.90;;;;;;4927283;29;20451;-70
2022/06/02 13:31:26;;;;;;;0.00;0.00;;;17.60;99.90;;;;;;4931984;28;21101;-69
2022/06/02 13:34:39;;;;;;;0.00;0.00;;;17.60;99.90;;;;;;4932731;29;20462;-70
2022/06/02 13:37:28;;;;;;;0.00;0.00;;;17.60;99.90;;;;;;4930749;29;20531;-69
2022/06/02 13:40:20;;;;;;;0.00;0.00;;;17.70;99.90;;;;;;4931778;29;20463;-70
2022/06/02 13:43:16;;;;;;;0.00;0.00;;;17.80;99.90;;;;;;4932728;29;20861;-69
2022/06/02 13:46:28;;;;;;;0.00;0.00;;;17.70;99.90;;;;;;4935058;29;20461;-69
2022/06/02 13:49:35;;;;;;;0.00;0.00;;;17.80;99.90;;;;;;4933708;29;20450;-69
2022/06/02 13:52:56;;;;;;;0.00;0.00;;;17.90;99.90;;;;;;4935577;29;20461;-67
2022/06/02 13:58:55;;;;;;;0.00;0.00;;;18.10;99.90;;;;;;4936899;29;20456;-69
2022/06/02 14:01:39;;;;;;;0.00;0.00;;;18.20;99.90;;;;;;4937208;29;20841;-69
2022/06/02 14:04:23;;;;;;;0.00;0.00;;;18.40;99.90;;;;;;4939543;28;20572;-69
2022/06/02 14:06:55;;;;;;;0.00;0.00;;;18.70;99.90;;;;;;4929296;29;20575;-69
2022/06/02 14:09:42;;;;;;;0.00;0.00;;;18.90;99.90;;;;;;4933748;28;20472;-69
2022/06/02 14:12:39;;;;;;;0.00;0.00;;;19.00;99.90;;;;;;4935314;29;20564;-69
2022/06/02 14:15:20;;;;;;;0.00;0.00;;;19.10;99.90;;;;;;4935708;29;20456;-68
2022/06/02 14:18:02;;;;;;;0.00;0.00;;;19.20;99.90;;;;;;4943296;29;20448;-68
2022/06/02 14:20:43;;;;;;;0.00;0.00;;;19.10;99.90;;;;;;4941539;29;20825;-68
2022/06/02 14:23:34;;;;;;;0.00;0.00;;;19.00;99.90;;;;;;4936991;29;20573;-68
2022/06/02 14:26:20;;;;;;;0.00;0.00;;;18.70;99.90;;;;;;4932005;29;20474;-68
2022/06/02 14:29:00;;;;;;;0.00;0.00;;;18.40;99.90;;;;;;4923597;29;20465;-69
2022/06/02 14:31:41;;;;;;;0.00;0.00;;;18.20;99.90;;;;;;4929339;29;20698;-68
2022/06/02 14:34:25;;;;;;;0.00;0.00;;;18.20;99.90;;;;;;4939065;29;20518;-68
2022/06/02 14:37:04;;;;;;;0.00;0.00;;;18.20;99.90;;;;;;4937997;28;20798;-68
2022/06/02 14:39:42;;;;;;;0.00;0.00;;;18.20;99.90;;;;;;4935919;29;20636;-69